Time,TemperatureF,DewpointF,PressureIn,WindDirection,WindDirectionDegrees,WindSpeedMPH,WindSpeedGustMPH,Humidity,HourlyPrecipIn,Conditions,Clouds,dailyrainin,SoftwareType,DateUTC
2013-05-17 00:01:00,77.3,72.1,29.74,SE,142,6.0,9.0,84,0.00,,,0.00,VWS V14.01,2013-05-17 05:01:00,
2013-05-17 00:05:00,77.4,72.2,29.74,SSE,160,10.0,15.0,84,0.00,,,0.00,VWS V14.01,2013-05-17 05:05:00,
2013-05-17 00:10:00,77.4,72.2,29.73,SSE,150,9.0,11.0,84,0.00,,,0.00,VWS V14.01,2013-05-17 05:10:00,
2013-05-17 00:15:00,77.4,72.2,29.74,SSE,147,4.0,8.0,84,0.00,,,0.00,VWS V14.01,2013-05-17 05:15:00,
2013-05-17 00:20:00,77.4,72.2,29.74,SE,139,11.0,11.0,84,0.00,,,0.00,VWS V14.01,2013-05-17 05:20:00,
2013-05-17 00:25:00,77.4,72.2,29.74,SSE,148,12.0,15.0,84,0.00,,,0.00,VWS V14.01,2013-05-17 05:25:00,
2013-05-17 00:30:00,77.4,72.2,29.73,SSE,158,6.0,7.0,84,0.00,,,0.00,VWS V14.01,2013-05-17 05:30:00,
2013-05-17 00:35:00,77.3,72.1,29.74,SSE,154,10.0,11.0,84,0.00,,,0.00,VWS V14.01,2013-05-17 05:35:00,
2013-05-17 00:40:00,77.3,72.1,29.74,SSE,164,7.0,7.0,84,0.00,,,0.00,VWS V14.01,2013-05-17 05:40:00,
2013-05-17 00:45:00,77.2,72.0,29.74,SE,133,9.0,11.0,84,0.00,,,0.00,VWS V14.01,2013-05-17 05:45:00,
2013-05-17 00:50:00,77.1,71.9,29.73,SE,144,8.0,10.0,84,0.00,,,0.00,VWS V14.01,2013-05-17 05:50:00,
2013-05-17 00:55:00,77.1,71.9,29.73,SSE,151,4.0,6.0,84,0.00,,,0.00,VWS V14.01,2013-05-17 05:55:00,
2013-05-17 01:00:00,77.0,72.2,29.74,SSE,156,7.0,7.0,85,0.00,,,0.00,VWS V14.01,2013-05-17 06:00:00,
2013-05-17 01:05:00,77.0,72.2,29.73,SE,146,4.0,7.0,85,0.00,,,0.00,VWS V14.01,2013-05-17 06:05:00,
2013-05-17 01:10:00,76.8,71.9,29.73,SE,129,6.0,8.0,85,0.00,,,0.00,VWS V14.01,2013-05-17 06:10:00,
2013-05-17 01:15:00,76.7,71.9,29.73,SE,135,8.0,10.0,85,0.00,,,0.00,VWS V14.01,2013-05-17 06:15:00,
2013-05-17 01:20:00,76.6,71.8,29.73,SSE,147,3.0,8.0,85,0.00,,,0.00,VWS V14.01,2013-05-17 06:20:00,
2013-05-17 01:25:00,76.5,71.7,29.73,SSE,149,4.0,8.0,85,0.00,,,0.00,VWS V14.01,2013-05-17 06:25:00,
2013-05-17 01:30:00,76.5,71.7,29.73,SSE,156,6.0,6.0,85,0.00,,,0.00,VWS V14.01,2013-05-17 06:30:00,
2013-05-17 01:35:00,76.4,71.6,29.73,SE,137,5.0,6.0,85,0.00,,,0.00,VWS V14.01,2013-05-17 06:35:00,
2013-05-17 01:40:00,76.4,71.6,29.73,SE,126,4.0,4.0,85,0.00,,,0.00,VWS V14.01,2013-05-17 06:40:00,
2013-05-17 01:45:00,76.3,71.8,29.73,SSE,153,8.0,11.0,86,0.00,,,0.00,VWS V14.01,2013-05-17 06:45:00,
2013-05-17 01:50:00,76.3,71.8,29.73,SE,137,9.0,11.0,86,0.00,,,0.00,VWS V14.01,2013-05-17 06:50:00,
2013-05-17 01:55:00,76.3,71.8,29.73,SSE,149,6.0,7.0,86,0.00,,,0.00,VWS V14.01,2013-05-17 06:55:00,
2013-05-17 02:00:00,76.3,71.5,29.73,SSE,149,7.0,9.0,85,0.00,,,0.00,VWS V14.01,2013-05-17 07:00:00,
2013-05-17 02:05:00,76.4,71.6,29.73,SSE,149,5.0,6.0,85,0.00,,,0.00,VWS V14.01,2013-05-17 07:05:00,
2013-05-17 02:10:00,76.3,71.5,29.73,SE,133,5.0,5.0,85,0.00,,,0.00,VWS V14.01,2013-05-17 07:10:00,
2013-05-17 02:15:00,76.3,71.5,29.73,SSE,150,6.0,6.0,85,0.00,,,0.00,VWS V14.01,2013-05-17 07:15:00,
2013-05-17 02:20:00,76.3,71.5,29.73,SSE,154,4.0,7.0,85,0.00,,,0.00,VWS V14.01,2013-05-17 07:20:00,
2013-05-17 02:25:00,76.3,71.5,29.74,SE,130,4.0,4.0,85,0.00,,,0.00,VWS V14.01,2013-05-17 07:25:00,
2013-05-17 02:30:00,76.3,71.8,29.74,SE,142,2.0,4.0,86,0.00,,,0.00,VWS V14.01,2013-05-17 07:30:00,
2013-05-17 02:35:00,76.3,71.5,29.74,SSE,166,7.0,9.0,85,0.00,,,0.00,VWS V14.01,2013-05-17 07:35:00,
2013-05-17 02:40:00,76.4,71.6,29.74,SSE,165,5.0,6.0,85,0.00,,,0.00,VWS V14.01,2013-05-17 07:40:00,
2013-05-17 02:45:00,76.4,71.6,29.74,SSE,157,5.0,7.0,85,0.00,,,0.00,VWS V14.01,2013-05-17 07:45:00,
2013-05-17 02:50:00,76.3,71.5,29.73,SE,136,5.0,8.0,85,0.00,,,0.00,VWS V14.01,2013-05-17 07:50:00,
2013-05-17 02:55:00,76.4,71.6,29.73,South,178,4.0,7.0,85,0.00,,,0.00,VWS V14.01,2013-05-17 07:55:00,
2013-05-17 03:00:00,76.3,71.5,29.73,SE,142,3.0,3.0,85,0.00,,,0.00,VWS V14.01,2013-05-17 08:00:00,
2013-05-17 03:05:00,76.4,71.6,29.73,SE,142,6.0,8.0,85,0.00,,,0.00,VWS V14.01,2013-05-17 08:05:00,
2013-05-17 03:10:00,76.4,71.6,29.73,SE,134,6.0,6.0,85,0.00,,,0.00,VWS V14.01,2013-05-17 08:10:00,
2013-05-17 03:15:00,76.4,71.6,29.74,East,80,0.0,1.0,85,0.00,,,0.00,VWS V14.01,2013-05-17 08:15:00,
2013-05-17 03:20:00,76.4,71.6,29.73,ESE,122,4.0,5.0,85,0.00,,,0.00,VWS V14.01,2013-05-17 08:20:00,
2013-05-17 03:25:00,76.3,71.5,29.73,SSE,154,7.0,7.0,85,0.00,,,0.00,VWS V14.01,2013-05-17 08:25:00,
2013-05-17 03:30:00,76.4,71.6,29.73,SE,125,5.0,6.0,85,0.00,,,0.00,VWS V14.01,2013-05-17 08:30:00,
2013-05-17 03:35:00,76.3,71.5,29.73,South,172,4.0,5.0,85,0.00,,,0.00,VWS V14.01,2013-05-17 08:35:00,
2013-05-17 03:40:00,76.3,71.5,29.73,SSE,149,4.0,4.0,85,0.00,,,0.00,VWS V14.01,2013-05-17 08:40:00,
2013-05-17 03:45:00,76.2,71.7,29.74,SE,139,4.0,4.0,86,0.00,,,0.00,VWS V14.01,2013-05-17 08:45:00,
2013-05-17 03:50:00,76.1,71.6,29.74,SSE,154,3.0,3.0,86,0.00,,,0.00,VWS V14.01,2013-05-17 08:50:00,
2013-05-17 03:55:00,76.1,71.6,29.74,SSE,149,5.0,5.0,86,0.00,,,0.00,VWS V14.01,2013-05-17 08:55:00,
2013-05-17 04:00:00,76.1,71.6,29.74,ESE,119,5.0,8.0,86,0.00,,,0.00,VWS V14.01,2013-05-17 09:00:00,
2013-05-17 04:05:00,76.0,71.2,29.74,SE,135,7.0,7.0,85,0.00,,,0.00,VWS V14.01,2013-05-17 09:05:00,
2013-05-17 04:10:00,76.0,71.5,29.74,SSE,162,4.0,8.0,86,0.00,,,0.00,VWS V14.01,2013-05-17 09:10:00,
2013-05-17 04:15:00,76.0,71.2,29.74,SE,135,6.0,10.0,85,0.00,,,0.00,VWS V14.01,2013-05-17 09:15:00,
2013-05-17 04:20:00,75.9,71.1,29.74,SE,142,9.0,11.0,85,0.00,,,0.00,VWS V14.01,2013-05-17 09:20:00,
2013-05-17 04:25:00,75.9,71.1,29.75,South,170,6.0,9.0,85,0.00,,,0.00,VWS V14.01,2013-05-17 09:25:00,
2013-05-17 04:30:00,75.9,71.1,29.74,SE,144,5.0,11.0,85,0.00,,,0.00,VWS V14.01,2013-05-17 09:30:00,
2013-05-17 04:35:00,75.8,71.0,29.74,SSE,153,7.0,8.0,85,0.00,,,0.00,VWS V14.01,2013-05-17 09:35:00,
2013-05-17 04:40:00,75.7,70.9,29.74,South,181,7.0,12.0,85,0.00,,,0.00,VWS V14.01,2013-05-17 09:40:00,
2013-05-17 04:45:00,75.6,70.8,29.74,SE,137,6.0,9.0,85,0.00,,,0.00,VWS V14.01,2013-05-17 09:45:00,
2013-05-17 04:50:00,75.5,70.7,29.74,SSE,163,3.0,8.0,85,0.00,,,0.00,VWS V14.01,2013-05-17 09:50:00,
2013-05-17 04:55:00,75.3,70.5,29.74,SE,133,5.0,9.0,85,0.00,,,0.00,VWS V14.01,2013-05-17 09:55:00,
2013-05-17 05:00:00,75.4,70.6,29.74,SSE,157,3.0,9.0,85,0.00,,,0.00,VWS V14.01,2013-05-17 10:00:00,
2013-05-17 05:05:00,75.4,70.6,29.74,SE,132,4.0,7.0,85,0.00,,,0.00,VWS V14.01,2013-05-17 10:05:00,
2013-05-17 05:10:00,75.3,70.8,29.74,SSE,156,6.0,10.0,86,0.00,,,0.00,VWS V14.01,2013-05-17 10:10:00,
2013-05-17 05:15:00,75.2,70.7,29.75,ESE,109,4.0,6.0,86,0.00,,,0.00,VWS V14.01,2013-05-17 10:15:00,
2013-05-17 05:20:00,75.1,70.6,29.75,ESE,113,2.0,5.0,86,0.00,,,0.00,VWS V14.01,2013-05-17 10:20:00,
2013-05-17 05:25:00,75.0,70.5,29.75,SE,127,5.0,6.0,86,0.00,,,0.00,VWS V14.01,2013-05-17 10:25:00,
2013-05-17 05:30:00,75.0,70.5,29.75,ESE,112,5.0,8.0,86,0.00,,,0.00,VWS V14.01,2013-05-17 10:30:00,
2013-05-17 05:35:00,74.9,70.4,29.75,ESE,104,2.0,6.0,86,0.00,,,0.00,VWS V14.01,2013-05-17 10:35:00,
2013-05-17 05:40:00,74.9,70.4,29.75,ESE,109,4.0,5.0,86,0.00,,,0.00,VWS V14.01,2013-05-17 10:40:00,
2013-05-17 05:44:00,74.8,70.3,29.75,ESE,123,1.0,6.0,86,0.00,,,0.00,VWS V14.01,2013-05-17 10:44:00,
2013-05-17 05:49:00,74.8,70.3,29.75,SE,125,4.0,7.0,86,0.00,,,0.00,VWS V14.01,2013-05-17 10:49:00,
2013-05-17 05:54:00,74.6,70.1,29.74,SE,134,5.0,7.0,86,0.00,,,0.00,VWS V14.01,2013-05-17 10:54:00,
2013-05-17 05:59:00,74.4,69.9,29.75,SE,139,3.0,5.0,86,0.00,,,0.00,VWS V14.01,2013-05-17 10:59:00,
2013-05-17 06:04:00,74.3,70.2,29.75,SE,136,3.0,7.0,87,0.00,,,0.00,VWS V14.01,2013-05-17 11:04:00,
2013-05-17 06:09:00,74.1,70.0,29.75,East,96,2.0,5.0,87,0.00,,,0.00,VWS V14.01,2013-05-17 11:09:00,
2013-05-17 06:14:00,74.0,69.9,29.75,East,90,1.0,2.0,87,0.00,,,0.00,VWS V14.01,2013-05-17 11:14:00,
2013-05-17 06:19:00,73.9,69.8,29.75,East,95,2.0,3.0,87,0.00,,,0.00,VWS V14.01,2013-05-17 11:19:00,
2013-05-17 06:24:00,73.8,70.0,29.75,East,97,1.0,2.0,88,0.00,,,0.00,VWS V14.01,2013-05-17 11:24:00,
2013-05-17 06:29:00,73.7,69.9,29.75,ESE,119,4.0,4.0,88,0.00,,,0.00,VWS V14.01,2013-05-17 11:29:00,
2013-05-17 06:34:00,73.6,69.8,29.76,ESE,113,1.0,4.0,88,0.00,,,0.00,VWS V14.01,2013-05-17 11:34:00,
2013-05-17 06:39:00,73.6,69.8,29.76,SE,124,3.0,4.0,88,0.00,,,0.00,VWS V14.01,2013-05-17 11:39:00,
2013-05-17 06:44:00,73.7,69.9,29.76,SE,129,4.0,6.0,88,0.00,,,0.00,VWS V14.01,2013-05-17 11:44:00,
2013-05-17 06:49:00,73.8,69.7,29.76,SSE,147,7.0,9.0,87,0.00,,,0.00,VWS V14.01,2013-05-17 11:49:00,
2013-05-17 06:54:00,73.8,69.7,29.76,SE,137,6.0,10.0,87,0.00,,,0.00,VWS V14.01,2013-05-17 11:54:00,
2013-05-17 06:59:00,73.7,69.6,29.76,SE,136,7.0,7.0,87,0.00,,,0.00,VWS V14.01,2013-05-17 11:59:00,
2013-05-17 07:04:00,73.7,69.6,29.76,SSE,164,5.0,8.0,87,0.00,,,0.00,VWS V14.01,2013-05-17 12:04:00,
2013-05-17 07:09:00,73.7,69.6,29.77,SSE,147,3.0,6.0,87,0.00,,,0.00,VWS V14.01,2013-05-17 12:09:00,
2013-05-17 07:14:00,73.8,69.7,29.77,SE,142,4.0,5.0,87,0.00,,,0.00,VWS V14.01,2013-05-17 12:14:00,
2013-05-17 07:19:00,73.8,69.7,29.77,SE,125,8.0,9.0,87,0.00,,,0.00,VWS V14.01,2013-05-17 12:19:00,
2013-05-17 07:24:00,73.9,69.4,29.77,SSE,149,7.0,13.0,86,0.00,,,0.00,VWS V14.01,2013-05-17 12:24:00,
2013-05-17 07:29:00,74.0,69.6,29.78,SE,132,3.0,8.0,86,0.00,,,0.00,VWS V14.01,2013-05-17 12:29:00,
2013-05-17 07:34:00,73.9,69.4,29.78,SSE,158,6.0,9.0,86,0.00,,,0.00,VWS V14.01,2013-05-17 12:34:00,
2013-05-17 07:39:00,73.9,69.1,29.78,SE,136,9.0,11.0,85,0.00,,,0.00,VWS V14.01,2013-05-17 12:39:00,
2013-05-17 07:44:00,74.0,69.2,29.78,SSE,153,9.0,14.0,85,0.00,,,0.00,VWS V14.01,2013-05-17 12:44:00,
2013-05-17 07:49:00,74.2,69.1,29.78,SE,125,6.0,13.0,84,0.00,,,0.00,VWS V14.01,2013-05-17 12:49:00,
2013-05-17 07:54:00,74.4,69.3,29.78,SE,126,10.0,14.0,84,0.00,,,0.00,VWS V14.01,2013-05-17 12:54:00,
2013-05-17 07:59:00,74.7,69.2,29.79,SSE,165,6.0,13.0,83,0.00,,,0.00,VWS V14.01,2013-05-17 12:59:00,
2013-05-17 08:04:00,74.8,69.3,29.79,SSE,149,11.0,15.0,83,0.00,,,0.00,VWS V14.01,2013-05-17 13:04:00,
2013-05-17 08:09:00,74.8,69.3,29.79,SSE,147,8.0,14.0,83,0.00,,,0.00,VWS V14.01,2013-05-17 13:09:00,
2013-05-17 08:14:00,74.9,69.4,29.79,SSE,161,8.0,13.0,83,0.00,,,0.00,VWS V14.01,2013-05-17 13:14:00,
2013-05-17 08:19:00,75.0,69.5,29.79,SSW,213,6.0,9.0,83,0.00,,,0.00,VWS V14.01,2013-05-17 13:19:00,
2013-05-17 08:24:00,75.0,69.1,29.79,South,176,6.0,11.0,82,0.00,,,0.00,VWS V14.01,2013-05-17 13:24:00,
2013-05-17 08:29:00,74.9,69.0,29.79,SSE,158,8.0,12.0,82,0.00,,,0.00,VWS V14.01,2013-05-17 13:29:00,
2013-05-17 08:34:00,75.1,69.2,29.80,South,191,11.0,13.0,82,0.00,,,0.00,VWS V14.01,2013-05-17 13:34:00,
2013-05-17 08:39:00,75.0,69.1,29.79,SSE,157,6.0,13.0,82,0.00,,,0.00,VWS V14.01,2013-05-17 13:39:00,
2013-05-17 08:44:00,75.2,69.3,29.79,South,188,5.0,12.0,82,0.00,,,0.00,VWS V14.01,2013-05-17 13:44:00,
2013-05-17 08:49:00,75.6,69.4,29.80,SSE,149,7.0,13.0,81,0.00,,,0.00,VWS V14.01,2013-05-17 13:49:00,
2013-05-17 08:54:00,76.0,69.4,29.80,SSE,147,10.0,12.0,80,0.00,,,0.00,VWS V14.01,2013-05-17 13:54:00,
2013-05-17 08:59:00,76.3,69.7,29.80,SE,142,6.0,13.0,80,0.00,,,0.00,VWS V14.01,2013-05-17 13:59:00,
2013-05-17 09:04:00,76.4,69.4,29.80,SE,141,7.0,14.0,79,0.00,,,0.00,VWS V14.01,2013-05-17 14:04:00,
2013-05-17 09:09:00,76.5,69.5,29.80,SE,142,10.0,14.0,79,0.00,,,0.00,VWS V14.01,2013-05-17 14:09:00,
2013-05-17 09:14:00,76.7,69.7,29.80,SE,136,8.0,14.0,79,0.00,,,0.00,VWS V14.01,2013-05-17 14:14:00,
2013-05-17 09:19:00,76.8,69.8,29.80,SE,129,6.0,13.0,79,0.00,,,0.00,VWS V14.01,2013-05-17 14:19:00,
2013-05-17 09:24:00,77.2,69.8,29.80,SSE,150,7.0,12.0,78,0.00,,,0.00,VWS V14.01,2013-05-17 14:24:00,
2013-05-17 09:29:00,77.3,69.9,29.80,South,172,7.0,10.0,78,0.00,,,0.00,VWS V14.01,2013-05-17 14:29:00,
2013-05-17 09:34:00,77.6,70.6,29.80,SSE,147,5.0,9.0,79,0.00,,,0.00,VWS V14.01,2013-05-17 14:34:00,
2013-05-17 09:39:00,78.3,70.5,29.80,SE,137,9.0,11.0,77,0.00,,,0.00,VWS V14.01,2013-05-17 14:39:00,
2013-05-17 09:44:00,78.2,70.0,29.80,SSE,151,9.0,12.0,76,0.00,,,0.00,VWS V14.01,2013-05-17 14:44:00,
2013-05-17 09:49:00,78.1,69.9,29.80,SSE,161,4.0,10.0,76,0.00,,,0.00,VWS V14.01,2013-05-17 14:49:00,
2013-05-17 09:54:00,78.2,70.0,29.80,SSE,159,4.0,13.0,76,0.00,,,0.00,VWS V14.01,2013-05-17 14:54:00,
2013-05-17 09:59:00,78.5,70.3,29.80,SSE,147,4.0,13.0,76,0.00,,,0.00,VWS V14.01,2013-05-17 14:59:00,
2013-05-17 10:04:00,79.1,71.3,29.80,SE,140,4.0,10.0,77,0.00,,,0.00,VWS V14.01,2013-05-17 15:04:00,
2013-05-17 10:09:00,79.9,71.7,29.80,South,177,6.0,9.0,76,0.00,,,0.00,VWS V14.01,2013-05-17 15:09:00,
2013-05-17 10:14:00,79.8,70.4,29.80,SE,139,5.0,13.0,73,0.00,,,0.00,VWS V14.01,2013-05-17 15:14:00,
2013-05-17 10:19:00,79.7,70.7,29.80,SE,143,7.0,13.0,74,0.00,,,0.00,VWS V14.01,2013-05-17 15:19:00,
2013-05-17 10:24:00,79.9,70.5,29.80,SE,142,11.0,15.0,73,0.00,,,0.00,VWS V14.01,2013-05-17 15:24:00,
2013-05-17 10:29:00,80.1,70.7,29.80,SE,132,10.0,11.0,73,0.00,,,0.00,VWS V14.01,2013-05-17 15:29:00,
2013-05-17 10:34:00,80.1,70.3,29.80,SSE,158,3.0,12.0,72,0.00,,,0.00,VWS V14.01,2013-05-17 15:34:00,
2013-05-17 10:39:00,80.5,70.7,29.80,ESE,112,9.0,12.0,72,0.00,,,0.00,VWS V14.01,2013-05-17 15:39:00,
2013-05-17 10:44:00,80.6,71.2,29.80,South,175,5.0,11.0,73,0.00,,,0.00,VWS V14.01,2013-05-17 15:44:00,
2013-05-17 10:49:00,81.2,71.3,29.80,SSE,167,6.0,11.0,72,0.00,,,0.00,VWS V14.01,2013-05-17 15:49:00,
2013-05-17 10:54:00,81.5,71.6,29.80,South,176,5.0,12.0,72,0.00,,,0.00,VWS V14.01,2013-05-17 15:54:00,
2013-05-17 10:59:00,81.8,71.5,29.80,SE,130,3.0,11.0,71,0.00,,,0.00,VWS V14.01,2013-05-17 15:59:00,
2013-05-17 11:04:00,82.1,70.9,29.80,SSE,153,3.0,12.0,69,0.00,,,0.00,VWS V14.01,2013-05-17 16:04:00,
2013-05-17 11:09:00,82.0,71.3,29.80,South,176,10.0,10.0,70,0.00,,,0.00,VWS V14.01,2013-05-17 16:09:00,
2013-05-17 11:14:00,82.1,71.8,29.80,SE,136,5.0,11.0,71,0.00,,,0.00,VWS V14.01,2013-05-17 16:14:00,
2013-05-17 11:19:00,82.5,72.2,29.80,South,184,9.0,13.0,71,0.00,,,0.00,VWS V14.01,2013-05-17 16:19:00,
2013-05-17 11:24:00,83.0,73.5,29.80,SSE,151,6.0,9.0,73,0.00,,,0.00,VWS V14.01,2013-05-17 16:24:00,
2013-05-17 11:29:00,83.2,72.0,29.80,SE,137,8.0,10.0,69,0.00,,,0.00,VWS V14.01,2013-05-17 16:29:00,
2013-05-17 11:33:00,83.0,71.8,29.80,SE,136,5.0,10.0,69,0.00,,,0.00,VWS V14.01,2013-05-17 16:33:00,
2013-05-17 11:38:00,83.6,71.9,29.80,SE,139,8.0,11.0,68,0.00,,,0.00,VWS V14.01,2013-05-17 16:38:00,
2013-05-17 11:43:00,83.7,73.3,29.80,South,175,8.0,11.0,71,0.00,,,0.00,VWS V14.01,2013-05-17 16:43:00,
2013-05-17 11:48:00,83.8,71.7,29.80,SSE,153,6.0,13.0,67,0.00,,,0.00,VWS V14.01,2013-05-17 16:48:00,
2013-05-17 11:53:00,83.8,72.1,29.80,ESE,114,5.0,12.0,68,0.00,,,0.00,VWS V14.01,2013-05-17 16:53:00,
2013-05-17 11:58:00,84.1,72.4,29.80,East,87,6.0,12.0,68,0.00,,,0.00,VWS V14.01,2013-05-17 16:58:00,
2013-05-17 12:03:00,84.6,71.6,29.80,SSE,151,5.0,12.0,65,0.00,,,0.00,VWS V14.01,2013-05-17 17:03:00,
2013-05-17 12:08:00,84.8,72.6,29.80,SE,131,8.0,12.0,67,0.00,,,0.00,VWS V14.01,2013-05-17 17:08:00,
2013-05-17 12:13:00,85.3,72.7,29.80,ESE,123,8.0,13.0,66,0.00,,,0.00,VWS V14.01,2013-05-17 17:13:00,
2013-05-17 12:18:00,85.5,72.4,29.80,SE,142,3.0,12.0,65,0.00,,,0.00,VWS V14.01,2013-05-17 17:18:00,
2013-05-17 12:23:00,85.6,71.6,29.80,South,175,8.0,14.0,63,0.00,,,0.00,VWS V14.01,2013-05-17 17:23:00,
2013-05-17 12:28:00,86.0,73.3,29.80,ESE,106,10.0,10.0,66,0.00,,,0.00,VWS V14.01,2013-05-17 17:28:00,
2013-05-17 12:33:00,86.0,72.9,29.80,ESE,113,9.0,13.0,65,0.00,,,0.00,VWS V14.01,2013-05-17 17:33:00,
2013-05-17 12:38:00,85.7,72.6,29.80,SSE,153,12.0,12.0,65,0.00,,,0.00,VWS V14.01,2013-05-17 17:38:00,
2013-05-17 12:43:00,86.1,72.5,29.79,SSE,160,8.0,12.0,64,0.00,,,0.00,VWS V14.01,2013-05-17 17:43:00,
2013-05-17 12:48:00,86.5,72.9,29.79,SE,125,13.0,14.0,64,0.00,,,0.00,VWS V14.01,2013-05-17 17:48:00,
2013-05-17 12:53:00,86.5,73.3,29.79,SE,125,6.0,12.0,65,0.00,,,0.00,VWS V14.01,2013-05-17 17:53:00,
2013-05-17 12:58:00,87.0,72.9,29.79,ESE,114,13.0,15.0,63,0.00,,,0.00,VWS V14.01,2013-05-17 17:58:00,
2013-05-17 13:03:00,87.2,73.1,29.79,SE,135,13.0,16.0,63,0.00,,,0.00,VWS V14.01,2013-05-17 18:03:00,
2013-05-17 13:08:00,87.5,73.4,29.79,SE,135,6.0,17.0,63,0.00,,,0.00,VWS V14.01,2013-05-17 18:08:00,
2013-05-17 13:13:00,87.7,73.1,29.78,SSE,149,9.0,15.0,62,0.00,,,0.00,VWS V14.01,2013-05-17 18:13:00,
2013-05-17 13:18:00,87.6,72.5,29.78,SE,129,11.0,16.0,61,0.00,,,0.00,VWS V14.01,2013-05-17 18:18:00,
2013-05-17 13:23:00,87.7,73.1,29.78,SSE,154,7.0,16.0,62,0.00,,,0.00,VWS V14.01,2013-05-17 18:23:00,
2013-05-17 13:28:00,87.9,73.3,29.78,SSE,150,11.0,16.0,62,0.00,,,0.00,VWS V14.01,2013-05-17 18:28:00,
2013-05-17 13:33:00,88.0,72.4,29.78,SE,126,14.0,16.0,60,0.00,,,0.00,VWS V14.01,2013-05-17 18:33:00,
2013-05-17 13:38:00,88.3,72.7,29.78,SSE,150,10.0,18.0,60,0.00,,,0.00,VWS V14.01,2013-05-17 18:38:00,
2013-05-17 13:43:00,88.5,72.8,29.78,SE,144,9.0,16.0,60,0.00,,,0.00,VWS V14.01,2013-05-17 18:43:00,
2013-05-17 13:48:00,88.6,72.4,29.78,SE,129,13.0,16.0,59,0.00,,,0.00,VWS V14.01,2013-05-17 18:48:00,
2013-05-17 13:53:00,88.7,74.0,29.77,SSE,156,8.0,13.0,62,0.00,,,0.00,VWS V14.01,2013-05-17 18:53:00,
2013-05-17 13:58:00,89.0,73.3,29.77,SE,126,10.0,15.0,60,0.00,,,0.00,VWS V14.01,2013-05-17 18:58:00,
2013-05-17 14:03:00,89.5,72.8,29.77,SSE,165,11.0,15.0,58,0.00,,,0.00,VWS V14.01,2013-05-17 19:03:00,
2013-05-17 14:08:00,89.5,73.3,29.77,SE,130,9.0,15.0,59,0.00,,,0.00,VWS V14.01,2013-05-17 19:08:00,
2013-05-17 14:13:00,89.7,73.0,29.77,South,190,10.0,12.0,58,0.00,,,0.00,VWS V14.01,2013-05-17 19:13:00,
2013-05-17 14:18:00,90.0,71.7,29.76,South,182,7.0,18.0,55,0.00,,,0.00,VWS V14.01,2013-05-17 19:18:00,
2013-05-17 14:23:00,90.5,73.2,29.76,SSE,149,6.0,16.0,57,0.00,,,0.00,VWS V14.01,2013-05-17 19:23:00,
2013-05-17 14:28:00,90.3,73.5,29.76,SSE,161,6.0,15.0,58,0.00,,,0.00,VWS V14.01,2013-05-17 19:28:00,
2013-05-17 15:39:00,92.1,71.4,29.75,South,190,10.0,15.0,51,0.00,,,0.00,VWS V14.01,2013-05-17 20:39:00,
2013-05-17 15:44:00,92.6,71.8,29.75,South,169,7.0,17.0,51,0.00,,,0.00,VWS V14.01,2013-05-17 20:44:00,
2013-05-17 15:49:00,92.7,71.9,29.74,SSE,153,7.0,14.0,51,0.00,,,0.00,VWS V14.01,2013-05-17 20:49:00,
2013-05-17 15:54:00,92.9,73.3,29.74,SSE,147,10.0,13.0,53,0.00,,,0.00,VWS V14.01,2013-05-17 20:54:00,
2013-05-17 15:59:00,93.1,72.3,29.74,South,174,7.0,12.0,51,0.00,,,0.00,VWS V14.01,2013-05-17 20:59:00,
2013-05-17 16:04:00,92.7,71.9,29.74,South,171,8.0,16.0,51,0.00,,,0.00,VWS V14.01,2013-05-17 21:04:00,
2013-05-17 16:09:00,92.2,72.6,29.73,SE,136,10.0,14.0,53,0.00,,,0.00,VWS V14.01,2013-05-17 21:09:00,
2013-05-17 16:14:00,92.3,72.1,29.73,SE,142,10.0,15.0,52,0.00,,,0.00,VWS V14.01,2013-05-17 21:14:00,
2013-05-17 16:19:00,92.1,72.5,29.73,SE,139,12.0,16.0,53,0.00,,,0.00,VWS V14.01,2013-05-17 21:19:00,
2013-05-17 16:24:00,92.2,72.6,29.73,SE,135,8.0,16.0,53,0.00,,,0.00,VWS V14.01,2013-05-17 21:24:00,
2013-05-17 16:29:00,92.3,73.3,29.73,SSE,156,6.0,12.0,54,0.00,,,0.00,VWS V14.01,2013-05-17 21:29:00,
2013-05-17 16:34:00,92.7,73.1,29.72,SSE,153,8.0,12.0,53,0.00,,,0.00,VWS V14.01,2013-05-17 21:34:00,
2013-05-17 16:39:00,92.6,73.0,29.72,SSE,151,12.0,18.0,53,0.00,,,0.00,VWS V14.01,2013-05-17 21:39:00,
2013-05-17 16:43:00,92.4,72.8,29.73,SE,127,13.0,16.0,53,0.00,,,0.00,VWS V14.01,2013-05-17 21:43:00,
2013-05-17 16:48:00,92.4,73.3,29.73,SE,146,18.0,18.0,54,0.00,,,0.00,VWS V14.01,2013-05-17 21:48:00,
2013-05-17 16:53:00,92.3,73.3,29.72,SE,136,13.0,15.0,54,0.00,,,0.00,VWS V14.01,2013-05-17 21:53:00,
2013-05-17 16:58:00,92.3,73.3,29.72,South,175,8.0,12.0,54,0.00,,,0.00,VWS V14.01,2013-05-17 21:58:00,
2013-05-17 17:03:00,92.2,73.7,29.72,SE,130,11.0,14.0,55,0.00,,,0.00,VWS V14.01,2013-05-17 22:03:00,
2013-05-17 17:08:00,92.5,73.4,29.72,South,180,10.0,17.0,54,0.00,,,0.00,VWS V14.01,2013-05-17 22:08:00,
2013-05-17 17:13:00,92.7,73.1,29.72,SE,132,8.0,17.0,53,0.00,,,0.00,VWS V14.01,2013-05-17 22:13:00,
2013-05-17 17:18:00,92.4,73.3,29.72,SE,139,12.0,15.0,54,0.00,,,0.00,VWS V14.01,2013-05-17 22:18:00,
2013-05-17 17:23:00,92.4,73.3,29.72,SE,135,14.0,14.0,54,0.00,,,0.00,VWS V14.01,2013-05-17 22:23:00,
2013-05-17 17:28:00,92.3,73.3,29.72,SE,135,10.0,17.0,54,0.00,,,0.00,VWS V14.01,2013-05-17 22:28:00,
2013-05-17 17:33:00,92.2,73.7,29.71,SSE,165,10.0,15.0,55,0.00,,,0.00,VWS V14.01,2013-05-17 22:33:00,
2013-05-17 17:38:00,92.1,73.6,29.71,SSE,149,7.0,15.0,55,0.00,,,0.00,VWS V14.01,2013-05-17 22:38:00,
2013-05-17 17:43:00,92.2,73.2,29.71,SE,135,15.0,18.0,54,0.00,,,0.00,VWS V14.01,2013-05-17 22:43:00,
2013-05-17 17:48:00,92.4,73.3,29.71,SSE,165,8.0,15.0,54,0.00,,,0.00,VWS V14.01,2013-05-17 22:48:00,
2013-05-17 17:53:00,92.4,73.3,29.71,SSE,157,8.0,16.0,54,0.00,,,0.00,VWS V14.01,2013-05-17 22:53:00,
2013-05-17 17:58:00,92.3,72.7,29.71,SE,136,7.0,15.0,53,0.00,,,0.00,VWS V14.01,2013-05-17 22:58:00,
2013-05-17 18:03:00,92.2,72.6,29.72,SE,139,12.0,14.0,53,0.00,,,0.00,VWS V14.01,2013-05-17 23:03:00,
2013-05-17 18:08:00,92.2,73.2,29.71,South,170,5.0,13.0,54,0.00,,,0.00,VWS V14.01,2013-05-17 23:08:00,
2013-05-17 18:13:00,92.2,73.2,29.71,SSE,156,10.0,16.0,54,0.00,,,0.00,VWS V14.01,2013-05-17 23:13:00,
2013-05-17 18:18:00,92.2,72.6,29.71,SE,135,11.0,11.0,53,0.00,,,0.00,VWS V14.01,2013-05-17 23:18:00,
2013-05-17 18:23:00,92.1,72.0,29.71,SE,142,10.0,15.0,52,0.00,,,0.00,VWS V14.01,2013-05-17 23:23:00,
2013-05-17 18:28:00,92.0,72.4,29.72,ESE,123,10.0,12.0,53,0.00,,,0.00,VWS V14.01,2013-05-17 23:28:00,
2013-05-17 18:33:00,92.0,72.4,29.71,SE,137,7.0,15.0,53,0.00,,,0.00,VWS V14.01,2013-05-17 23:33:00,
2013-05-17 18:38:00,92.0,71.9,29.72,SE,144,12.0,14.0,52,0.00,,,0.00,VWS V14.01,2013-05-17 23:38:00,
2013-05-17 18:43:00,92.0,71.9,29.72,SSE,156,10.0,12.0,52,0.00,,,0.00,VWS V14.01,2013-05-17 23:43:00,
2013-05-17 18:48:00,91.8,72.2,29.72,ESE,123,7.0,15.0,53,0.00,,,0.00,VWS V14.01,2013-05-17 23:48:00,
2013-05-17 18:53:00,91.3,71.8,29.72,SSE,147,7.0,12.0,53,0.00,,,0.00,VWS V14.01,2013-05-17 23:53:00,
2013-05-17 18:58:00,91.0,71.5,29.72,SE,132,9.0,9.0,53,0.00,,,0.00,VWS V14.01,2013-05-17 23:58:00,
2013-05-17 19:03:00,90.7,71.2,29.73,SSE,149,6.0,10.0,53,0.00,,,0.00,VWS V14.01,2013-05-18 00:03:00,
2013-05-17 19:08:00,90.6,71.7,29.73,SE,143,6.0,11.0,54,0.00,,,0.00,VWS V14.01,2013-05-18 00:08:00,
2013-05-17 19:13:00,90.3,71.4,29.73,SE,130,10.0,11.0,54,0.00,,,0.00,VWS V14.01,2013-05-18 00:13:00,
2013-05-17 19:18:00,90.1,71.2,29.72,SE,129,12.0,13.0,54,0.00,,,0.00,VWS V14.01,2013-05-18 00:18:00,
2013-05-17 19:23:00,90.1,71.8,29.72,SE,137,6.0,12.0,55,0.00,,,0.00,VWS V14.01,2013-05-18 00:23:00,
2013-05-17 19:28:00,90.1,71.8,29.72,ESE,122,5.0,9.0,55,0.00,,,0.00,VWS V14.01,2013-05-18 00:28:00,
2013-05-17 19:33:00,90.1,71.8,29.72,ESE,123,7.0,12.0,55,0.00,,,0.00,VWS V14.01,2013-05-18 00:33:00,
2013-05-17 19:38:00,90.1,71.8,29.72,SE,142,7.0,11.0,55,0.00,,,0.00,VWS V14.01,2013-05-18 00:38:00,
2013-05-17 19:43:00,90.0,72.2,29.72,ESE,123,5.0,11.0,56,0.00,,,0.00,VWS V14.01,2013-05-18 00:43:00,
2013-05-17 19:48:00,89.8,72.0,29.72,SE,136,4.0,8.0,56,0.00,,,0.00,VWS V14.01,2013-05-18 00:48:00,
2013-05-17 19:53:00,89.5,71.7,29.72,SE,133,4.0,7.0,56,0.00,,,0.00,VWS V14.01,2013-05-18 00:53:00,
2013-05-17 19:58:00,89.3,72.1,29.73,SE,144,3.0,9.0,57,0.00,,,0.00,VWS V14.01,2013-05-18 00:58:00,
2013-05-17 20:03:00,88.9,71.7,29.73,SSE,167,6.0,8.0,57,0.00,,,0.00,VWS V14.01,2013-05-18 01:03:00,
2013-05-17 20:08:00,88.6,71.4,29.73,SE,132,5.0,8.0,57,0.00,,,0.00,VWS V14.01,2013-05-18 01:08:00,
2013-05-17 20:13:00,88.4,71.2,29.74,ESE,113,4.0,7.0,57,0.00,,,0.00,VWS V14.01,2013-05-18 01:13:00,
2013-05-17 20:18:00,88.3,71.2,29.74,SE,142,5.0,7.0,57,0.00,,,0.00,VWS V14.01,2013-05-18 01:18:00,
2013-05-17 20:23:00,87.9,71.3,29.74,SE,127,6.0,8.0,58,0.00,,,0.00,VWS V14.01,2013-05-18 01:23:00,
2013-05-17 20:28:00,87.7,71.1,29.73,SE,139,6.0,8.0,58,0.00,,,0.00,VWS V14.01,2013-05-18 01:28:00,
2013-05-17 20:33:00,87.6,71.0,29.74,ESE,115,3.0,8.0,58,0.00,,,0.00,VWS V14.01,2013-05-18 01:33:00,
2013-05-17 20:38:00,87.4,71.3,29.74,SSE,160,6.0,8.0,59,0.00,,,0.00,VWS V14.01,2013-05-18 01:38:00,
2013-05-17 20:43:00,87.2,71.1,29.75,SSE,147,3.0,8.0,59,0.00,,,0.00,VWS V14.01,2013-05-18 01:43:00,
2013-05-17 20:48:00,87.2,71.1,29.75,SE,125,4.0,9.0,59,0.00,,,0.00,VWS V14.01,2013-05-18 01:48:00,
2013-05-17 20:53:00,87.1,71.0,29.76,SE,135,4.0,8.0,59,0.00,,,0.00,VWS V14.01,2013-05-18 01:53:00,
2013-05-17 20:58:00,86.4,71.4,29.76,SE,128,7.0,9.0,61,0.00,,,0.00,VWS V14.01,2013-05-18 01:58:00,
2013-05-17 21:03:00,86.0,71.5,29.76,SSE,147,6.0,12.0,62,0.00,,,0.00,VWS V14.01,2013-05-18 02:03:00,
2013-05-17 21:08:00,86.2,71.7,29.77,SSE,150,7.0,14.0,62,0.00,,,0.00,VWS V14.01,2013-05-18 02:08:00,
2013-05-17 21:13:00,86.1,72.0,29.77,SSE,155,7.0,11.0,63,0.00,,,0.00,VWS V14.01,2013-05-18 02:13:00,
2013-05-17 21:18:00,85.9,71.8,29.78,SE,134,7.0,14.0,63,0.00,,,0.00,VWS V14.01,2013-05-18 02:18:00,
2013-05-17 21:23:00,85.6,72.0,29.78,ESE,123,8.0,11.0,64,0.00,,,0.00,VWS V14.01,2013-05-18 02:23:00,
2013-05-17 21:28:00,85.2,72.1,29.78,SE,135,6.0,8.0,65,0.00,,,0.00,VWS V14.01,2013-05-18 02:28:00,
2013-05-17 21:33:00,84.6,72.0,29.79,ESE,115,5.0,9.0,66,0.00,,,0.00,VWS V14.01,2013-05-18 02:33:00,
2013-05-17 21:38:00,84.1,72.0,29.79,ESE,116,6.0,9.0,67,0.00,,,0.00,VWS V14.01,2013-05-18 02:38:00,
2013-05-17 21:43:00,83.7,72.0,29.79,ESE,111,4.0,10.0,68,0.00,,,0.00,VWS V14.01,2013-05-18 02:43:00,
2013-05-17 21:48:00,83.2,72.0,29.79,ESE,113,7.0,10.0,69,0.00,,,0.00,VWS V14.01,2013-05-18 02:48:00,
2013-05-17 21:53:00,82.9,72.1,29.79,SE,129,9.0,11.0,70,0.00,,,0.00,VWS V14.01,2013-05-18 02:53:00,
2013-05-17 21:58:00,82.8,72.0,29.80,ESE,123,4.0,10.0,70,0.00,,,0.00,VWS V14.01,2013-05-18 02:58:00,
2013-05-17 22:03:00,82.6,72.2,29.80,ESE,110,7.0,12.0,71,0.00,,,0.00,VWS V14.01,2013-05-18 03:03:00,
2013-05-17 22:08:00,82.7,72.3,29.80,SE,128,8.0,14.0,71,0.00,,,0.00,VWS V14.01,2013-05-18 03:08:00,
2013-05-17 22:13:00,82.6,72.2,29.80,SE,127,5.0,14.0,71,0.00,,,0.00,VWS V14.01,2013-05-18 03:13:00,
2013-05-17 22:18:00,82.2,72.3,29.81,SE,133,8.0,12.0,72,0.00,,,0.00,VWS V14.01,2013-05-18 03:18:00,
2013-05-17 22:22:00,81.9,72.4,29.81,East,88,3.0,9.0,73,0.00,,,0.00,VWS V14.01,2013-05-18 03:22:00,
2013-05-17 22:27:00,81.7,72.2,29.81,ESE,116,7.0,11.0,73,0.00,,,0.00,VWS V14.01,2013-05-18 03:27:00,
2013-05-17 22:32:00,81.5,72.0,29.81,SE,132,7.0,11.0,73,0.00,,,0.00,VWS V14.01,2013-05-18 03:32:00,
2013-05-17 22:37:00,81.5,72.0,29.81,SE,127,13.0,13.0,73,0.00,,,0.00,VWS V14.01,2013-05-18 03:37:00,
2013-05-17 22:42:00,81.5,72.0,29.82,SE,143,6.0,14.0,73,0.00,,,0.00,VWS V14.01,2013-05-18 03:42:00,
2013-05-17 22:47:00,81.3,71.8,29.82,ESE,115,8.0,13.0,73,0.00,,,0.00,VWS V14.01,2013-05-18 03:47:00,
2013-05-17 22:52:00,81.2,71.7,29.82,ESE,123,10.0,16.0,73,0.00,,,0.00,VWS V14.01,2013-05-18 03:52:00,
2013-05-17 22:57:00,81.1,72.0,29.82,SE,134,11.0,12.0,74,0.00,,,0.00,VWS V14.01,2013-05-18 03:57:00,
2013-05-17 23:01:00,81.0,71.9,29.82,SE,144,8.0,12.0,74,0.00,,,0.00,VWS V14.01,2013-05-18 04:01:00,
2013-05-17 23:06:00,80.7,71.7,29.82,SE,144,12.0,15.0,74,0.00,,,0.00,VWS V14.01,2013-05-18 04:06:00,
2013-05-17 23:11:00,80.5,71.8,29.82,SE,127,6.0,8.0,75,0.00,,,0.00,VWS V14.01,2013-05-18 04:11:00,
2013-05-17 23:16:00,80.4,71.8,29.82,SSE,150,12.0,15.0,75,0.00,,,0.00,VWS V14.01,2013-05-18 04:16:00,
2013-05-17 23:21:00,80.2,71.6,29.81,SE,127,12.0,12.0,75,0.00,,,0.00,VWS V14.01,2013-05-18 04:21:00,
2013-05-17 23:26:00,80.0,71.8,29.81,SE,142,6.0,10.0,76,0.00,,,0.00,VWS V14.01,2013-05-18 04:26:00,
2013-05-17 23:31:00,79.9,71.7,29.81,SE,140,6.0,7.0,76,0.00,,,0.00,VWS V14.01,2013-05-18 04:31:00,
2013-05-17 23:36:00,79.7,71.5,29.82,ESE,123,8.0,12.0,76,0.00,,,0.00,VWS V14.01,2013-05-18 04:36:00,
2013-05-17 23:41:00,79.4,71.6,29.81,SE,132,7.0,7.0,77,0.00,,,0.00,VWS V14.01,2013-05-18 04:41:00,
2013-05-17 23:46:00,79.3,71.5,29.82,ESE,113,5.0,7.0,77,0.00,,,0.00,VWS V14.01,2013-05-18 04:46:00,
2013-05-17 23:51:00,79.0,71.2,29.82,SSE,160,5.0,9.0,77,0.00,,,0.00,VWS V14.01,2013-05-18 04:51:00,
2013-05-17 23:56:00,78.8,71.0,29.82,SE,139,5.0,6.0,77,0.00,,,0.00,VWS V14.01,2013-05-18 04:56:00,